createdAt,value
2023-05-02T00:01:08.803Z,7.10
2023-05-02T00:03:38.620Z,3.53
2023-05-02T00:06:07.026Z,3.67
2023-05-02T00:08:35.524Z,4.07
2023-05-02T00:11:04.086Z,4.60
2023-05-02T00:13:32.380Z,2.97
2023-05-02T00:16:00.898Z,10.33
2023-05-02T00:18:29.143Z,5.23
2023-05-02T00:20:58.767Z,4.57
2023-05-02T00:23:27.172Z,6.07
2023-05-02T00:25:55.478Z,3.50
2023-05-02T00:28:23.827Z,3.10
2023-05-02T00:30:52.148Z,3.20
2023-05-02T00:33:20.409Z,4.40
2023-05-02T00:35:48.837Z,6.20
2023-05-02T00:38:18.459Z,4.70
2023-05-02T00:40:47.935Z,2.77
2023-05-02T00:43:16.718Z,2.97
2023-05-02T00:45:46.535Z,6.63
2023-05-02T00:48:18.060Z,2.63
2023-05-02T00:50:46.343Z,3.00
2023-05-02T00:53:14.638Z,2.83
2023-05-02T00:55:44.696Z,4.27
2023-05-02T00:58:15.130Z,2.53
2023-05-02T01:00:55.742Z,5.77
2023-05-02T01:03:34.670Z,2.27
2023-05-02T01:06:17.957Z,2.40
2023-05-02T01:08:53.751Z,5.60
2023-05-02T01:11:36.524Z,3.03
2023-05-02T01:14:07.333Z,3.20
2023-05-02T01:16:41.254Z,10.53
2023-05-02T01:19:14.898Z,4.90
2023-05-02T01:21:43.684Z,2.67
2023-05-02T01:24:18.733Z,2.50
2023-05-02T01:26:57.868Z,2.90
2023-05-02T01:29:30.869Z,2.63
2023-05-02T01:32:01.307Z,3.10
2023-05-02T01:34:31.444Z,2.67
2023-05-02T01:37:03.961Z,4.67
2023-05-02T01:39:32.631Z,3.17
2023-05-02T01:44:36.090Z,4.33
2023-05-02T01:47:08.150Z,7.07
2023-05-02T01:49:37.856Z,5.40
2023-05-02T01:52:10.931Z,9.17
2023-05-02T01:54:40.322Z,6.63
2023-05-02T01:57:11.193Z,4.87
2023-05-02T01:59:42.409Z,3.27
2023-05-02T02:02:12.759Z,2.73
2023-05-02T02:04:42.182Z,2.93
2023-05-02T02:07:14.449Z,6.30
2023-05-02T02:09:43.322Z,9.40
2023-05-02T02:12:17.324Z,5.83
2023-05-02T02:14:52.285Z,10.60
2023-05-02T02:17:28.187Z,10.57
2023-05-02T02:19:58.555Z,17.20
2023-05-02T02:22:28.907Z,5.30
2023-05-02T02:24:58.725Z,13.90
2023-05-02T02:27:27.399Z,2.90
2023-05-02T02:29:57.189Z,11.90
2023-05-02T02:32:25.915Z,2.60
2023-05-02T02:34:55.379Z,5.37
2023-05-02T02:37:31.565Z,3.83
2023-05-02T02:40:05.706Z,3.17
2023-05-02T02:42:40.837Z,3.40
2023-05-02T02:45:24.881Z,3.17
2023-05-02T02:48:02.619Z,4.53
2023-05-02T02:50:37.870Z,3.10
2023-05-02T02:53:08.788Z,3.57
2023-05-02T02:55:41.877Z,3.43
2023-05-02T02:58:21.854Z,3.90
2023-05-02T03:00:51.879Z,2.80
2023-05-02T03:03:25.301Z,2.67
2023-05-02T03:05:53.646Z,10.10
2023-05-02T03:08:22.039Z,3.50
2023-05-02T03:10:50.596Z,4.30
2023-05-02T03:13:18.857Z,4.93
2023-05-02T03:16:34.889Z,3.40
2023-05-02T03:19:03.558Z,6.63
2023-05-02T03:21:32.550Z,5.10
2023-05-02T03:24:01.782Z,8.40
2023-05-02T03:26:30.195Z,6.87
2023-05-02T03:28:58.711Z,5.43
2023-05-02T03:31:28.420Z,3.70
2023-05-02T03:33:56.672Z,4.17
2023-05-02T03:36:25.053Z,3.40
2023-05-02T03:38:53.315Z,3.93
2023-05-02T03:41:21.543Z,3.53
2023-05-02T03:43:49.878Z,3.53
2023-05-02T03:46:18.449Z,4.30
2023-05-02T03:48:48.110Z,3.70
2023-05-02T03:51:16.371Z,6.20
2023-05-02T03:53:44.747Z,5.90
2023-05-02T03:56:13.205Z,7.10
2023-05-02T03:58:41.476Z,7.33
2023-05-02T04:01:16.327Z,7.00
2023-05-02T04:03:44.990Z,10.73
2023-05-02T04:06:15.021Z,4.70
2023-05-02T04:08:43.551Z,7.23
2023-05-02T04:11:11.794Z,7.53
2023-05-02T04:13:40.178Z,21.23
2023-05-02T04:16:08.933Z,4.23
2023-05-02T04:18:37.204Z,8.10
2023-05-02T04:21:05.623Z,7.37
2023-05-02T04:23:35.429Z,9.23
2023-05-02T04:26:03.890Z,24.23
2023-05-02T04:28:32.242Z,12.30
2023-05-02T04:31:00.882Z,8.80
2023-05-02T04:33:29.179Z,12.23
2023-05-02T04:35:57.637Z,10.50
2023-05-02T04:38:25.945Z,16.57
2023-05-02T04:40:55.883Z,7.93
2023-05-02T04:43:24.827Z,7.23
2023-05-02T04:45:53.481Z,11.00
2023-05-02T04:48:21.858Z,8.73
2023-05-02T04:50:52.567Z,8.53
2023-05-02T04:53:22.809Z,12.33
2023-05-02T04:55:51.145Z,5.60
2023-05-02T04:58:22.358Z,20.00
2023-05-02T05:00:50.733Z,13.90
2023-05-02T05:03:19.148Z,6.63
2023-05-02T05:05:47.762Z,6.13
2023-05-02T05:08:16.353Z,10.40
2023-05-02T05:10:44.950Z,10.90
2023-05-02T05:13:14.051Z,12.50
2023-05-02T05:15:44.657Z,15.73
2023-05-02T05:18:13.219Z,17.37
2023-05-02T05:20:41.490Z,12.13
2023-05-02T05:23:09.845Z,11.33
2023-05-02T05:25:38.139Z,15.07
2023-05-02T05:28:06.814Z,16.27
2023-05-02T05:30:35.597Z,21.07
2023-05-02T05:33:05.536Z,14.90
2023-05-02T05:35:34.098Z,17.07
2023-05-02T05:38:02.478Z,19.57
2023-05-02T05:40:30.816Z,20.23
2023-05-02T05:42:59.103Z,13.97
2023-05-02T05:45:27.500Z,15.43
2023-05-02T05:47:56.039Z,10.47
2023-05-02T05:50:25.849Z,7.90
2023-05-02T05:52:54.266Z,8.60
2023-05-02T05:55:22.932Z,13.03
2023-05-02T05:57:51.299Z,8.10
2023-05-02T06:00:20.166Z,7.60
2023-05-02T06:02:48.569Z,7.63
2023-05-02T06:05:18.872Z,11.77
2023-05-02T06:07:48.659Z,11.63
2023-05-02T06:10:17.028Z,21.10
2023-05-02T06:12:47.161Z,13.80
2023-05-02T06:15:16.553Z,11.70
2023-05-02T06:17:45.464Z,13.13
2023-05-02T06:20:14.971Z,19.80
2023-05-02T06:22:44.440Z,11.27
2023-05-02T06:25:14.127Z,9.83
2023-05-02T06:27:42.392Z,9.23
2023-05-02T06:30:11.270Z,13.47
2023-05-02T06:32:39.672Z,9.57
2023-05-02T06:35:08.556Z,7.77
2023-05-02T06:37:36.956Z,13.40
2023-05-02T06:40:05.886Z,10.33
2023-05-02T06:42:35.703Z,9.90
2023-05-02T06:45:04.340Z,11.83
2023-05-02T06:47:33.083Z,22.90
2023-05-02T06:50:01.651Z,16.10
2023-05-02T06:52:30.224Z,15.33
2023-05-02T06:54:58.476Z,11.83
2023-05-02T06:57:26.956Z,13.17
2023-05-02T06:59:57.006Z,11.47
2023-05-02T07:02:25.414Z,24.43
2023-05-02T07:04:53.664Z,12.93
2023-05-02T07:07:22.317Z,15.53
2023-05-02T07:09:50.507Z,14.00
2023-05-02T07:12:19.130Z,15.80
2023-05-02T07:14:47.583Z,19.40
2023-05-02T07:17:17.224Z,10.27
2023-05-02T07:19:45.763Z,15.93
2023-05-02T07:22:14.270Z,7.50
2023-05-02T07:24:43.118Z,9.30
2023-05-02T07:27:11.708Z,8.97
2023-05-02T07:29:40.344Z,7.30
2023-05-02T07:32:08.759Z,7.93
2023-05-02T07:34:38.398Z,19.83
2023-05-02T07:37:06.562Z,6.93
2023-05-02T07:39:35.309Z,4.80
2023-05-02T07:42:03.880Z,7.50
2023-05-02T07:44:33.608Z,6.40
2023-05-02T07:47:01.843Z,6.27
2023-05-02T07:49:31.141Z,5.87
2023-05-02T07:52:00.765Z,13.00
2023-05-02T07:54:28.939Z,5.93
2023-05-02T07:57:02.417Z,7.00
2023-05-02T07:59:32.473Z,7.53
2023-05-02T08:02:00.709Z,9.47
2023-05-02T08:04:29.212Z,5.00
2023-05-02T08:06:57.633Z,8.83
2023-05-02T08:09:27.818Z,4.30
2023-05-02T08:11:56.076Z,5.50
2023-05-02T08:14:24.369Z,4.57
2023-05-02T08:16:52.709Z,5.00
2023-05-02T08:19:21.115Z,5.90
2023-05-02T08:21:49.422Z,4.73
2023-05-02T08:24:17.708Z,6.87
2023-05-02T08:26:47.330Z,5.53
2023-05-02T08:29:15.610Z,3.87
2023-05-02T08:31:43.954Z,5.57
2023-05-02T08:34:12.406Z,5.70
2023-05-02T08:36:40.706Z,5.33
2023-05-02T08:39:09.478Z,5.13
2023-05-02T08:41:37.916Z,4.33
2023-05-02T08:44:09.035Z,3.90
2023-05-02T08:46:37.972Z,4.33
2023-05-02T08:49:08.067Z,4.73
2023-05-02T08:51:39.213Z,3.83
2023-05-02T08:54:10.996Z,5.63
2023-05-02T08:56:40.074Z,4.03
2023-05-02T08:59:09.777Z,4.60
2023-05-02T09:01:40.775Z,3.67
2023-05-02T09:04:09.104Z,3.37
2023-05-02T09:06:37.953Z,3.50
2023-05-02T09:09:06.278Z,5.67
2023-05-02T09:11:34.579Z,3.37
2023-05-02T09:14:04.565Z,11.90
2023-05-02T09:16:40.526Z,3.43
2023-05-02T09:19:08.929Z,3.70
2023-05-02T09:21:40.065Z,6.20
2023-05-02T09:24:17.439Z,5.07
2023-05-02T09:26:57.860Z,3.60
2023-05-02T09:29:26.298Z,8.77
2023-05-02T09:31:56.783Z,3.90
2023-05-02T09:34:25.453Z,4.27
2023-05-02T09:36:55.065Z,5.93
2023-05-02T09:39:26.064Z,3.40
2023-05-02T09:41:54.991Z,4.53
2023-05-02T09:44:24.706Z,5.70
2023-05-02T09:46:54.465Z,3.60
2023-05-02T09:49:41.226Z,3.90
2023-05-02T09:52:13.968Z,5.10
2023-05-02T09:54:42.329Z,4.40
2023-05-02T09:57:11.177Z,4.17
2023-05-02T09:59:41.237Z,6.77
2023-05-02T10:02:11.781Z,9.93
2023-05-02T10:04:43.144Z,6.03
2023-05-02T10:07:12.646Z,7.60
2023-05-02T10:09:45.763Z,4.20
2023-05-02T10:12:17.261Z,7.20
2023-05-02T10:14:50.884Z,4.57
2023-05-02T10:17:24.471Z,5.07
2023-05-02T10:19:58.298Z,4.63
2023-05-02T10:22:27.672Z,5.20
2023-05-02T10:24:59.314Z,3.40
2023-05-02T10:27:27.838Z,3.93
2023-05-02T10:29:59.535Z,4.33
2023-05-02T10:32:29.782Z,4.57
2023-05-02T10:35:05.381Z,5.23
2023-05-02T10:37:36.514Z,3.90
2023-05-02T10:40:11.248Z,8.80
2023-05-02T10:42:43.682Z,6.93
2023-05-02T10:45:14.708Z,5.70
2023-05-02T10:47:43.238Z,5.43
2023-05-02T10:50:13.371Z,6.20
2023-05-02T10:52:42.345Z,4.80
2023-05-02T10:55:19.412Z,4.77
2023-05-02T10:58:23.031Z,4.03
2023-05-02T11:00:51.548Z,4.63
2023-05-02T11:03:53.026Z,3.80
2023-05-02T11:06:22.802Z,25.53
2023-05-02T11:08:51.659Z,3.90
2023-05-02T11:11:42.856Z,5.70
2023-05-02T11:14:12.227Z,4.87
2023-05-02T11:17:09.880Z,4.17
2023-05-02T11:20:30.156Z,3.33
2023-05-02T11:23:24.736Z,6.00
2023-05-02T11:25:54.874Z,4.10
2023-05-02T11:28:48.285Z,5.73
2023-05-02T11:32:05.352Z,3.50
2023-05-02T11:34:52.830Z,6.43
2023-05-02T11:37:22.373Z,6.87
2023-05-02T11:39:52.121Z,4.47
2023-05-02T11:42:30.558Z,8.00
2023-05-02T11:45:00.611Z,3.20
2023-05-02T11:47:30.004Z,4.40
2023-05-02T11:50:00.314Z,4.00
2023-05-02T11:52:28.694Z,3.20
2023-05-02T11:54:58.668Z,3.00
2023-05-02T11:57:28.054Z,3.70
2023-05-02T11:59:58.805Z,6.43
2023-05-02T12:02:38.066Z,7.37
2023-05-02T12:05:07.586Z,3.57
2023-05-02T12:07:40.278Z,3.40
2023-05-02T12:10:12.173Z,3.83
2023-05-02T12:12:41.627Z,3.70
2023-05-02T12:15:11.704Z,9.83
2023-05-02T12:17:42.509Z,9.30
2023-05-02T12:20:12.743Z,3.10
2023-05-02T12:22:41.189Z,3.00
2023-05-02T12:25:11.453Z,2.60
2023-05-02T12:27:39.914Z,3.20
2023-05-02T12:30:09.252Z,4.60
2023-05-02T12:32:38.798Z,5.63
2023-05-02T12:35:22.071Z,3.30
2023-05-02T12:37:50.356Z,3.17
2023-05-02T12:40:20.109Z,3.50
2023-05-02T12:43:01.340Z,9.13
2023-05-02T12:45:33.695Z,2.83
2023-05-02T12:48:02.737Z,7.90
2023-05-02T12:50:38.350Z,7.03
2023-05-02T12:53:07.978Z,3.43
2023-05-02T12:55:38.251Z,2.70
2023-05-02T12:58:08.248Z,4.00
2023-05-02T13:00:39.010Z,2.63
2023-05-02T13:03:08.035Z,2.60
2023-05-02T13:05:36.499Z,2.97
2023-05-02T13:08:04.771Z,2.83
2023-05-02T13:10:33.329Z,6.40
2023-05-02T13:13:03.843Z,3.23
2023-05-02T13:15:32.174Z,3.10
2023-05-02T13:18:00.508Z,3.57
2023-05-02T13:20:28.789Z,2.80
2023-05-02T13:22:57.246Z,3.40
2023-05-02T13:25:26.344Z,2.90
2023-05-02T13:27:54.586Z,3.07
2023-05-02T13:30:24.261Z,2.80
2023-05-02T13:32:52.711Z,3.57
2023-05-02T13:35:21.166Z,3.37
2023-05-02T13:37:49.378Z,3.47
2023-05-02T13:40:17.845Z,3.73
2023-05-02T13:42:46.220Z,7.07
2023-05-02T13:45:14.723Z,3.20
2023-05-02T13:47:44.424Z,3.30
2023-05-02T13:50:13.054Z,6.20
2023-05-02T13:52:41.302Z,3.10
2023-05-02T13:55:10.446Z,3.37
2023-05-02T13:57:38.760Z,4.30
2023-05-02T14:00:09.780Z,3.00
2023-05-02T14:02:38.384Z,4.57
2023-05-02T14:05:09.345Z,5.07
2023-05-02T14:07:37.607Z,6.00
2023-05-02T14:10:06.862Z,3.43
2023-05-02T14:12:35.198Z,4.20
2023-05-02T14:15:03.474Z,3.63
2023-05-02T14:17:31.870Z,3.57
2023-05-02T14:20:00.441Z,3.53
2023-05-02T14:22:30.364Z,3.40
2023-05-02T14:24:58.659Z,3.47
2023-05-02T14:27:26.930Z,5.60
2023-05-02T14:29:55.300Z,3.33
2023-05-02T14:32:23.574Z,3.40
2023-05-02T14:34:51.835Z,3.13
2023-05-02T14:37:20.094Z,3.27
2023-05-02T14:39:54.945Z,4.30
2023-05-02T14:42:23.463Z,3.80
2023-05-02T14:44:51.975Z,3.53
2023-05-02T14:47:20.382Z,3.70
2023-05-02T14:49:48.826Z,4.27
2023-05-02T14:52:17.026Z,3.57
2023-05-02T14:54:45.551Z,3.50
2023-05-02T14:57:15.611Z,4.10
2023-05-02T14:59:43.878Z,3.83
2023-05-02T15:02:12.383Z,3.50
2023-05-02T15:04:41.122Z,11.73
2023-05-02T15:07:09.894Z,4.03
2023-05-02T15:09:38.304Z,6.20
2023-05-02T15:12:06.948Z,4.10
2023-05-02T15:14:36.678Z,3.20
2023-05-02T15:17:05.144Z,3.73
2023-05-02T15:19:33.389Z,6.67
2023-05-02T15:22:01.852Z,3.87
2023-05-02T15:24:30.752Z,6.13
2023-05-02T15:26:59.137Z,7.40
2023-05-02T15:29:27.467Z,3.87
2023-05-02T15:31:57.197Z,3.93
2023-05-02T15:34:25.593Z,3.90
2023-05-02T15:36:54.700Z,3.90
2023-05-02T15:39:26.398Z,3.73
2023-05-02T15:41:54.659Z,5.70
2023-05-02T15:44:22.969Z,4.07
2023-05-02T15:46:51.224Z,4.23
2023-05-02T15:49:20.987Z,8.40
2023-05-02T15:51:49.328Z,8.60
2023-05-02T15:54:17.659Z,13.57
2023-05-02T15:56:46.701Z,3.67
2023-05-02T15:59:14.978Z,5.50
2023-05-02T16:01:43.338Z,3.20
2023-05-02T16:04:11.796Z,3.70
2023-05-02T16:06:42.437Z,3.87
2023-05-02T16:09:11.412Z,3.93
2023-05-02T16:11:39.668Z,7.23
2023-05-02T16:14:07.974Z,5.53
2023-05-02T16:16:36.335Z,4.20
2023-05-02T16:19:04.701Z,10.07
2023-05-02T16:21:32.986Z,7.00
2023-05-02T16:24:03.211Z,5.17
2023-05-02T16:26:33.941Z,9.33
2023-05-02T16:29:02.210Z,8.50
2023-05-02T16:31:30.504Z,4.73
2023-05-02T16:33:59.689Z,7.73
2023-05-02T16:36:29.120Z,4.73
2023-05-02T16:38:57.407Z,5.30
2023-05-02T16:41:27.136Z,10.17
2023-05-02T16:43:55.331Z,7.83
2023-05-02T16:46:23.917Z,7.00
2023-05-02T16:48:52.256Z,4.27
2023-05-02T16:51:20.625Z,4.33
2023-05-02T16:53:48.994Z,8.23
2023-05-02T16:56:17.409Z,6.90
2023-05-02T16:58:47.038Z,4.70
2023-05-02T17:01:15.571Z,4.40
2023-05-02T17:03:44.103Z,6.03
2023-05-02T17:06:12.429Z,4.00
2023-05-02T17:08:40.688Z,4.80
2023-05-02T17:11:08.950Z,7.40
2023-05-02T17:13:37.440Z,13.63
2023-05-02T17:16:08.559Z,140.27
2023-05-02T17:18:37.415Z,374.40
2023-05-02T17:21:06.008Z,1081.73
2023-05-02T17:23:35.048Z,572.73
2023-05-02T17:26:04.305Z,254.83
2023-05-02T17:28:32.808Z,40.70
2023-05-02T17:31:01.298Z,17.73
2023-05-02T17:33:31.066Z,8.47
2023-05-02T17:35:59.278Z,6.43
2023-05-02T17:38:27.921Z,8.07
2023-05-02T17:40:56.705Z,5.17
2023-05-02T17:43:25.233Z,9.07
2023-05-02T17:45:53.536Z,6.73
2023-05-02T17:48:21.835Z,12.60
2023-05-02T17:50:51.567Z,7.90
2023-05-02T17:53:20.174Z,19.20
2023-05-02T17:55:48.354Z,5.47
2023-05-02T17:58:16.633Z,5.33
2023-05-02T18:00:44.903Z,8.17
2023-05-02T18:03:13.270Z,9.10
2023-05-02T18:05:44.181Z,6.07
2023-05-02T18:08:13.997Z,7.77
2023-05-02T18:10:42.935Z,8.40
2023-05-02T18:13:11.225Z,5.90
2023-05-02T18:15:39.886Z,7.40
2023-05-02T18:18:08.407Z,8.70
2023-05-02T18:20:40.549Z,9.23
2023-05-02T18:23:08.813Z,6.00
2023-05-02T18:25:38.670Z,10.73
2023-05-02T18:28:07.286Z,10.37
2023-05-02T18:30:38.072Z,7.73
2023-05-02T18:33:07.764Z,9.00
2023-05-02T18:35:36.721Z,11.70
2023-05-02T18:38:07.899Z,17.80
2023-05-02T18:40:36.268Z,14.53
2023-05-02T18:43:06.099Z,19.37
2023-05-02T18:45:34.971Z,10.07
2023-05-02T18:48:03.640Z,12.20
2023-05-02T18:50:32.205Z,14.10
2023-05-02T18:53:00.436Z,13.57
2023-05-02T18:55:29.360Z,16.17
2023-05-02T18:57:57.669Z,15.30
2023-05-02T19:00:30.239Z,14.83
2023-05-02T19:02:59.884Z,14.13
2023-05-02T19:05:28.602Z,19.30
2023-05-02T19:07:57.048Z,15.83
2023-05-02T19:10:25.604Z,19.00
2023-05-02T19:12:53.961Z,20.10
2023-05-02T19:15:23.952Z,22.10
2023-05-02T19:17:54.154Z,20.80
2023-05-02T19:20:22.909Z,20.83
2023-05-02T19:22:54.093Z,29.20
2023-05-02T19:25:26.165Z,23.17
2023-05-02T19:27:54.441Z,31.77
2023-05-02T19:30:23.028Z,25.43
2023-05-02T19:32:51.501Z,21.03
2023-05-02T19:35:21.520Z,19.83
2023-05-02T19:37:49.723Z,24.93
2023-05-02T19:40:18.333Z,21.43
2023-05-02T19:42:46.911Z,19.93
2023-05-02T19:45:15.284Z,18.57
2023-05-02T19:47:45.683Z,21.87
2023-05-02T19:50:14.212Z,18.83
2023-05-02T19:52:45.161Z,22.87
2023-05-02T19:55:13.591Z,20.57
2023-05-02T19:57:44.284Z,16.53
2023-05-02T20:00:14.197Z,19.73
2023-05-02T20:02:42.744Z,17.77
2023-05-02T20:05:11.654Z,25.40
2023-05-02T20:07:39.998Z,19.10
2023-05-02T20:10:11.403Z,24.77
2023-05-02T20:12:39.774Z,17.50
2023-05-02T20:15:08.895Z,19.50
2023-05-02T20:17:37.260Z,16.70
2023-05-02T20:20:08.391Z,24.93
2023-05-02T20:22:36.758Z,16.70
2023-05-02T20:25:05.498Z,17.47
2023-05-02T20:27:35.212Z,15.97
2023-05-02T20:30:03.996Z,18.03
2023-05-02T20:32:32.517Z,18.00
2023-05-02T20:35:00.858Z,20.87
2023-05-02T20:37:29.447Z,21.10
2023-05-02T20:39:58.586Z,16.90
2023-05-02T20:42:27.115Z,20.30
2023-05-02T20:44:59.095Z,14.73
2023-05-02T20:47:28.847Z,21.80
2023-05-02T20:49:58.060Z,14.60
2023-05-02T20:52:26.560Z,18.03
2023-05-02T20:54:55.237Z,17.50
2023-05-02T20:57:24.400Z,16.93
2023-05-02T20:59:53.497Z,15.77
2023-05-02T21:02:23.161Z,21.30
2023-05-02T21:04:51.616Z,16.60
2023-05-02T21:07:20.339Z,15.83
2023-05-02T21:09:49.021Z,16.63
2023-05-02T21:12:17.406Z,16.33
2023-05-02T21:14:45.841Z,19.80
2023-05-02T21:17:14.214Z,15.33
2023-05-02T21:19:44.051Z,18.47
2023-05-02T21:22:12.282Z,16.53
2023-05-02T21:24:40.727Z,22.83
2023-05-02T21:27:09.038Z,19.37
2023-05-02T21:29:37.298Z,21.83
2023-05-02T21:32:06.283Z,20.70
2023-05-02T21:34:34.778Z,22.03
2023-05-02T21:37:04.484Z,21.90
2023-05-02T21:39:32.833Z,20.20
2023-05-02T21:42:01.502Z,23.90
2023-05-02T21:44:29.870Z,21.23
2023-05-02T21:46:58.931Z,19.30
2023-05-02T21:49:27.256Z,21.33
2023-05-02T21:51:55.674Z,22.90
2023-05-02T21:54:25.623Z,23.73
2023-05-02T21:56:55.218Z,26.07
2023-05-02T21:59:23.549Z,24.80
2023-05-02T22:01:51.997Z,21.70
2023-05-02T22:04:20.609Z,22.27
2023-05-02T22:06:51.517Z,18.57
2023-05-02T22:09:20.839Z,21.73
2023-05-02T22:11:50.589Z,21.23
2023-05-02T22:14:18.867Z,21.37
2023-05-02T22:16:47.352Z,20.63
2023-05-02T22:19:15.791Z,25.13
2023-05-02T22:21:44.084Z,25.60
2023-05-02T22:24:12.355Z,18.17
2023-05-02T22:26:40.659Z,19.53
2023-05-02T22:29:10.490Z,21.20
2023-05-02T22:31:38.828Z,21.60
2023-05-02T22:34:07.299Z,19.90
2023-05-02T22:36:36.443Z,22.27
2023-05-02T22:39:09.031Z,26.00
2023-05-02T22:41:37.355Z,19.57
2023-05-02T22:44:05.819Z,23.50
2023-05-02T22:46:35.634Z,21.40
2023-05-02T22:49:03.914Z,21.87
2023-05-02T22:51:32.286Z,28.40
2023-05-02T22:54:00.578Z,21.03
2023-05-02T22:56:28.989Z,18.30
2023-05-02T22:58:57.271Z,24.20
2023-05-02T23:01:25.917Z,18.20
2023-05-02T23:03:55.828Z,19.37
2023-05-02T23:06:24.386Z,30.80
2023-05-02T23:08:52.889Z,28.67
2023-05-02T23:11:21.316Z,19.87
2023-05-02T23:13:49.551Z,19.00
2023-05-02T23:16:17.857Z,18.67
2023-05-02T23:18:48.006Z,26.30
2023-05-02T23:21:18.210Z,25.00
2023-05-02T23:23:46.502Z,20.90
2023-05-02T23:26:14.758Z,24.80
2023-05-02T23:28:43.210Z,14.70
2023-05-02T23:31:11.540Z,18.30
2023-05-02T23:33:39.897Z,19.97
2023-05-02T23:36:09.236Z,19.53
2023-05-02T23:38:39.801Z,20.33
2023-05-02T23:41:08.107Z,19.43
2023-05-02T23:43:36.717Z,16.33
2023-05-02T23:46:05.132Z,17.53
2023-05-02T23:48:33.412Z,18.77
2023-05-02T23:51:01.759Z,19.40
2023-05-02T23:53:29.978Z,16.63
2023-05-02T23:56:00.726Z,15.90
2023-05-02T23:58:29.048Z,18.07
